Berrotaran, Argentina
Current Conditions -  °F | °C
As of 3:00 PM on Thursday 23 Oct 2014 (Local Time) from SAOC Reporting Station
Clear Clear  
Wind Chill: 95°   Ceiling: Unl
Heat Index: 95°   Visibility: 6mi
Dew Point: 46°   Wind: 18mph
Humidity: 19%   Direction: 360°N
Pressure: 29.85"   Gusts: 32mph
Location:  32.46°S, 64.39°W
Report Text: SAOC 231800Z 36016G28KT CAVOK 35/08 Q1011
Loading
Personal Weather Stations






























Interactive Weather Map
Tropical Storm Tracking
New forecast layout! Learn more

10-Day Weather Forecast

Advertisements
Track Severe Weather on mobile